sensor_id;sensor_type;location;lat;lon;timestamp;P1;durP1;ratioP1;P2;durP2;ratioP2
13404;SDS011;6773;51.192;7.024;2022-08-19T00:01:34;9.05;;;6.88;;
13404;SDS011;6773;51.192;7.024;2022-08-19T00:04:02;8.98;;;8.07;;
13404;SDS011;6773;51.192;7.024;2022-08-19T00:06:30;8.75;;;7.60;;
13404;SDS011;6773;51.192;7.024;2022-08-19T00:08:56;10.98;;;8.07;;
13404;SDS011;6773;51.192;7.024;2022-08-19T00:11:23;7.95;;;7.25;;
13404;SDS011;6773;51.192;7.024;2022-08-19T00:13:51;8.60;;;7.80;;
13404;SDS011;6773;51.192;7.024;2022-08-19T00:16:17;8.73;;;7.93;;
13404;SDS011;6773;51.192;7.024;2022-08-19T00:18:44;10.88;;;7.88;;
13404;SDS011;6773;51.192;7.024;2022-08-19T00:21:10;8.63;;;7.75;;
13404;SDS011;6773;51.192;7.024;2022-08-19T00:23:35;9.02;;;7.57;;
13404;SDS011;6773;51.192;7.024;2022-08-19T00:26:02;10.48;;;8.15;;
13404;SDS011;6773;51.192;7.024;2022-08-19T00:28:29;9.68;;;8.68;;
13404;SDS011;6773;51.192;7.024;2022-08-19T00:30:55;9.98;;;8.98;;
13404;SDS011;6773;51.192;7.024;2022-08-19T00:33:21;12.43;;;9.20;;
13404;SDS011;6773;51.192;7.024;2022-08-19T00:35:47;10.68;;;9.25;;
13404;SDS011;6773;51.192;7.024;2022-08-19T00:38:13;10.55;;;8.80;;
13404;SDS011;6773;51.192;7.024;2022-08-19T00:40:39;10.32;;;8.93;;
13404;SDS011;6773;51.192;7.024;2022-08-19T00:43:07;10.05;;;9.10;;
13404;SDS011;6773;51.192;7.024;2022-08-19T00:45:34;9.63;;;8.63;;
13404;SDS011;6773;51.192;7.024;2022-08-19T00:48:01;10.30;;;9.30;;
13404;SDS011;6773;51.192;7.024;2022-08-19T00:50:29;10.13;;;9.13;;
13404;SDS011;6773;51.192;7.024;2022-08-19T00:52:56;10.80;;;9.38;;
13404;SDS011;6773;51.192;7.024;2022-08-19T00:55:24;10.02;;;9.02;;
13404;SDS011;6773;51.192;7.024;2022-08-19T00:57:54;11.13;;;10.10;;
13404;SDS011;6773;51.192;7.024;2022-08-19T01:00:23;10.95;;;9.85;;
13404;SDS011;6773;51.192;7.024;2022-08-19T01:02:49;14.55;;;11.07;;
13404;SDS011;6773;51.192;7.024;2022-08-19T01:05:23;12.57;;;11.27;;
13404;SDS011;6773;51.192;7.024;2022-08-19T01:07:52;13.18;;;11.68;;
13404;SDS011;6773;51.192;7.024;2022-08-19T01:10:19;11.85;;;10.65;;
13404;SDS011;6773;51.192;7.024;2022-08-19T01:12:48;14.82;;;11.45;;
13404;SDS011;6773;51.192;7.024;2022-08-19T01:15:16;12.02;;;10.85;;
13404;SDS011;6773;51.192;7.024;2022-08-19T01:17:46;12.80;;;11.40;;
13404;SDS011;6773;51.192;7.024;2022-08-19T01:20:15;13.20;;;11.90;;
13404;SDS011;6773;51.192;7.024;2022-08-19T01:22:46;13.95;;;12.32;;
13404;SDS011;6773;51.192;7.024;2022-08-19T01:25:18;12.35;;;11.13;;
13404;SDS011;6773;51.192;7.024;2022-08-19T01:27:47;11.82;;;10.63;;
13404;SDS011;6773;51.192;7.024;2022-08-19T01:30:19;12.52;;;11.35;;
13404;SDS011;6773;51.192;7.024;2022-08-19T01:32:48;12.77;;;11.48;;
13404;SDS011;6773;51.192;7.024;2022-08-19T01:35:14;14.70;;;11.90;;
13404;SDS011;6773;51.192;7.024;2022-08-19T01:37:50;15.50;;;12.05;;
13404;SDS011;6773;51.192;7.024;2022-08-19T01:40:26;15.60;;;11.68;;
13404;SDS011;6773;51.192;7.024;2022-08-19T01:42:56;14.18;;;11.90;;
13404;SDS011;6773;51.192;7.024;2022-08-19T01:45:24;14.23;;;12.77;;
13404;SDS011;6773;51.192;7.024;2022-08-19T01:47:52;13.93;;;12.07;;
13404;SDS011;6773;51.192;7.024;2022-08-19T01:50:18;13.02;;;11.73;;
13404;SDS011;6773;51.192;7.024;2022-08-19T01:52:44;12.15;;;10.23;;
13404;SDS011;6773;51.192;7.024;2022-08-19T01:55:11;12.50;;;11.07;;
13404;SDS011;6773;51.192;7.024;2022-08-19T01:57:39;13.40;;;12.02;;
13404;SDS011;6773;51.192;7.024;2022-08-19T02:00:09;13.15;;;11.85;;
13404;SDS011;6773;51.192;7.024;2022-08-19T02:02:37;13.52;;;11.27;;
13404;SDS011;6773;51.192;7.024;2022-08-19T02:05:04;13.15;;;11.13;;
13404;SDS011;6773;51.192;7.024;2022-08-19T02:07:32;14.15;;;12.05;;
13404;SDS011;6773;51.192;7.024;2022-08-19T02:09:58;15.70;;;11.82;;
13404;SDS011;6773;51.192;7.024;2022-08-19T02:12:23;12.20;;;10.93;;
13404;SDS011;6773;51.192;7.024;2022-08-19T02:14:49;15.43;;;13.65;;
13404;SDS011;6773;51.192;7.024;2022-08-19T02:17:15;15.05;;;13.18;;
13404;SDS011;6773;51.192;7.024;2022-08-19T02:19:41;13.30;;;11.93;;
13404;SDS011;6773;51.192;7.024;2022-08-19T02:22:07;14.40;;;12.90;;
13404;SDS011;6773;51.192;7.024;2022-08-19T02:24:32;14.80;;;13.10;;
13404;SDS011;6773;51.192;7.024;2022-08-19T02:26:59;16.77;;;13.77;;
13404;SDS011;6773;51.192;7.024;2022-08-19T02:29:24;14.13;;;12.65;;
13404;SDS011;6773;51.192;7.024;2022-08-19T02:31:50;15.20;;;13.30;;
13404;SDS011;6773;51.192;7.024;2022-08-19T02:34:16;15.15;;;12.98;;
13404;SDS011;6773;51.192;7.024;2022-08-19T02:36:42;15.15;;;13.00;;
13404;SDS011;6773;51.192;7.024;2022-08-19T02:39:08;14.90;;;13.30;;
13404;SDS011;6773;51.192;7.024;2022-08-19T02:41:34;14.20;;;12.52;;
13404;SDS011;6773;51.192;7.024;2022-08-19T02:44:01;14.98;;;13.43;;
13404;SDS011;6773;51.192;7.024;2022-08-19T02:46:29;16.52;;;13.65;;
13404;SDS011;6773;51.192;7.024;2022-08-19T02:48:58;17.10;;;14.40;;
13404;SDS011;6773;51.192;7.024;2022-08-19T02:51:28;16.27;;;14.57;;
13404;SDS011;6773;51.192;7.024;2022-08-19T02:53:56;16.48;;;13.70;;
13404;SDS011;6773;51.192;7.024;2022-08-19T02:56:22;16.27;;;14.57;;
13404;SDS011;6773;51.192;7.024;2022-08-19T02:58:50;17.23;;;15.38;;
13404;SDS011;6773;51.192;7.024;2022-08-19T03:01:26;16.98;;;15.15;;
13404;SDS011;6773;51.192;7.024;2022-08-19T03:03:54;18.17;;;16.10;;
13404;SDS011;6773;51.192;7.024;2022-08-19T03:06:20;18.13;;;16.10;;
13404;SDS011;6773;51.192;7.024;2022-08-19T03:08:47;18.50;;;15.38;;
13404;SDS011;6773;51.192;7.024;2022-08-19T03:11:27;16.50;;;14.73;;
13404;SDS011;6773;51.192;7.024;2022-08-19T03:13:55;15.45;;;13.77;;
13404;SDS011;6773;51.192;7.024;2022-08-19T03:16:22;15.23;;;13.63;;
13404;SDS011;6773;51.192;7.024;2022-08-19T03:18:50;14.05;;;12.57;;
13404;SDS011;6773;51.192;7.024;2022-08-19T03:21:18;15.25;;;13.63;;
13404;SDS011;6773;51.192;7.024;2022-08-19T03:23:54;15.65;;;13.20;;
13404;SDS011;6773;51.192;7.024;2022-08-19T03:26:21;14.95;;;13.45;;
13404;SDS011;6773;51.192;7.024;2022-08-19T03:28:47;18.23;;;14.77;;
13404;SDS011;6773;51.192;7.024;2022-08-19T03:31:15;16.42;;;14.45;;
13404;SDS011;6773;51.192;7.024;2022-08-19T03:33:42;15.77;;;14.07;;
13404;SDS011;6773;51.192;7.024;2022-08-19T03:36:10;17.83;;;15.95;;
13404;SDS011;6773;51.192;7.024;2022-08-19T03:38:36;18.15;;;16.17;;
13404;SDS011;6773;51.192;7.024;2022-08-19T03:41:05;17.67;;;15.82;;
13404;SDS011;6773;51.192;7.024;2022-08-19T03:43:38;19.67;;;16.95;;
13404;SDS011;6773;51.192;7.024;2022-08-19T03:46:12;17.88;;;16.02;;
13404;SDS011;6773;51.192;7.024;2022-08-19T03:48:39;17.92;;;15.50;;
13404;SDS011;6773;51.192;7.024;2022-08-19T03:51:08;16.00;;;14.30;;
13404;SDS011;6773;51.192;7.024;2022-08-19T03:53:45;15.82;;;14.10;;
13404;SDS011;6773;51.192;7.024;2022-08-19T03:56:11;17.40;;;14.75;;
13404;SDS011;6773;51.192;7.024;2022-08-19T03:58:38;16.92;;;15.15;;
13404;SDS011;6773;51.192;7.024;2022-08-19T04:01:07;19.30;;;15.77;;
13404;SDS011;6773;51.192;7.024;2022-08-19T04:03:35;17.48;;;15.60;;
13404;SDS011;6773;51.192;7.024;2022-08-19T04:06:14;18.58;;;16.65;;
13404;SDS011;6773;51.192;7.024;2022-08-19T04:08:42;18.40;;;16.42;;
13404;SDS011;6773;51.192;7.024;2022-08-19T04:11:10;19.05;;;16.92;;
13404;SDS011;6773;51.192;7.024;2022-08-19T04:13:38;20.30;;;17.52;;
13404;SDS011;6773;51.192;7.024;2022-08-19T04:16:04;18.42;;;15.90;;
13404;SDS011;6773;51.192;7.024;2022-08-19T04:18:30;17.60;;;15.88;;
13404;SDS011;6773;51.192;7.024;2022-08-19T04:20:57;17.23;;;15.43;;
13404;SDS011;6773;51.192;7.024;2022-08-19T04:23:23;19.08;;;16.85;;
13404;SDS011;6773;51.192;7.024;2022-08-19T04:25:49;21.45;;;17.20;;
13404;SDS011;6773;51.192;7.024;2022-08-19T04:28:15;18.20;;;16.27;;
13404;SDS011;6773;51.192;7.024;2022-08-19T04:30:42;19.50;;;17.55;;
13404;SDS011;6773;51.192;7.024;2022-08-19T04:33:10;21.40;;;19.33;;
13404;SDS011;6773;51.192;7.024;2022-08-19T04:35:37;21.02;;;18.70;;
13404;SDS011;6773;51.192;7.024;2022-08-19T04:38:11;20.08;;;17.98;;
13404;SDS011;6773;51.192;7.024;2022-08-19T04:40:41;20.83;;;18.75;;
13404;SDS011;6773;51.192;7.024;2022-08-19T04:43:27;20.25;;;18.23;;
13404;SDS011;6773;51.192;7.024;2022-08-19T04:45:54;19.02;;;17.15;;
13404;SDS011;6773;51.192;7.024;2022-08-19T04:48:20;19.65;;;17.73;;
13404;SDS011;6773;51.192;7.024;2022-08-19T04:50:50;20.48;;;18.42;;
13404;SDS011;6773;51.192;7.024;2022-08-19T04:53:22;21.63;;;18.48;;
13404;SDS011;6773;51.192;7.024;2022-08-19T04:55:53;23.30;;;18.92;;
13404;SDS011;6773;51.192;7.024;2022-08-19T04:58:20;24.58;;;19.60;;
13404;SDS011;6773;51.192;7.024;2022-08-19T05:00:45;20.88;;;18.67;;
13404;SDS011;6773;51.192;7.024;2022-08-19T05:03:11;20.90;;;18.70;;
13404;SDS011;6773;51.192;7.024;2022-08-19T05:05:39;24.42;;;19.02;;
13404;SDS011;6773;51.192;7.024;2022-08-19T05:08:06;22.73;;;19.52;;
13404;SDS011;6773;51.192;7.024;2022-08-19T05:10:34;20.88;;;18.63;;
13404;SDS011;6773;51.192;7.024;2022-08-19T05:13:03;21.95;;;18.98;;
13404;SDS011;6773;51.192;7.024;2022-08-19T05:15:30;23.45;;;20.95;;
13404;SDS011;6773;51.192;7.024;2022-08-19T05:17:55;23.58;;;21.27;;
13404;SDS011;6773;51.192;7.024;2022-08-19T05:20:40;22.63;;;19.42;;
13404;SDS011;6773;51.192;7.024;2022-08-19T05:23:24;19.98;;;17.92;;
13404;SDS011;6773;51.192;7.024;2022-08-19T05:25:50;19.08;;;17.08;;
13404;SDS011;6773;51.192;7.024;2022-08-19T05:28:16;25.30;;;21.13;;
13404;SDS011;6773;51.192;7.024;2022-08-19T05:30:43;22.45;;;19.95;;
13404;SDS011;6773;51.192;7.024;2022-08-19T05:33:09;27.33;;;22.92;;
13404;SDS011;6773;51.192;7.024;2022-08-19T05:35:40;27.25;;;22.17;;
13404;SDS011;6773;51.192;7.024;2022-08-19T05:38:06;25.35;;;21.98;;
13404;SDS011;6773;51.192;7.024;2022-08-19T05:40:34;26.85;;;20.52;;
13404;SDS011;6773;51.192;7.024;2022-08-19T05:43:04;27.23;;;24.10;;
13404;SDS011;6773;51.192;7.024;2022-08-19T05:45:31;26.85;;;23.67;;
13404;SDS011;6773;51.192;7.024;2022-08-19T05:47:57;31.52;;;26.95;;
13404;SDS011;6773;51.192;7.024;2022-08-19T05:50:23;36.03;;;28.38;;
13404;SDS011;6773;51.192;7.024;2022-08-19T05:52:51;37.35;;;28.27;;
13404;SDS011;6773;51.192;7.024;2022-08-19T05:55:17;32.03;;;28.52;;
13404;SDS011;6773;51.192;7.024;2022-08-19T05:57:45;31.90;;;28.42;;
13404;SDS011;6773;51.192;7.024;2022-08-19T06:00:12;35.30;;;28.92;;
13404;SDS011;6773;51.192;7.024;2022-08-19T06:02:39;33.38;;;28.00;;
13404;SDS011;6773;51.192;7.024;2022-08-19T06:05:05;37.92;;;30.25;;
13404;SDS011;6773;51.192;7.024;2022-08-19T06:07:34;34.55;;;30.73;;
13404;SDS011;6773;51.192;7.024;2022-08-19T06:10:08;41.83;;;32.92;;
13404;SDS011;6773;51.192;7.024;2022-08-19T06:12:35;39.33;;;31.38;;
13404;SDS011;6773;51.192;7.024;2022-08-19T06:15:03;40.05;;;31.17;;
13404;SDS011;6773;51.192;7.024;2022-08-19T06:17:37;40.63;;;33.83;;
13404;SDS011;6773;51.192;7.024;2022-08-19T06:20:04;44.53;;;34.58;;
13404;SDS011;6773;51.192;7.024;2022-08-19T06:22:31;43.50;;;35.03;;
13404;SDS011;6773;51.192;7.024;2022-08-19T06:24:56;46.15;;;35.83;;
13404;SDS011;6773;51.192;7.024;2022-08-19T06:27:22;48.55;;;36.83;;
13404;SDS011;6773;51.192;7.024;2022-08-19T06:29:48;43.05;;;36.50;;
13404;SDS011;6773;51.192;7.024;2022-08-19T06:32:14;47.35;;;38.22;;
13404;SDS011;6773;51.192;7.024;2022-08-19T06:34:43;50.63;;;40.38;;
13404;SDS011;6773;51.192;7.024;2022-08-19T06:37:08;54.65;;;41.95;;
13404;SDS011;6773;51.192;7.024;2022-08-19T06:39:36;53.58;;;41.58;;
13404;SDS011;6773;51.192;7.024;2022-08-19T06:42:05;51.38;;;37.97;;
13404;SDS011;6773;51.192;7.024;2022-08-19T06:44:37;46.88;;;40.78;;
13404;SDS011;6773;51.192;7.024;2022-08-19T06:47:06;46.78;;;39.05;;
13404;SDS011;6773;51.192;7.024;2022-08-19T06:49:34;48.22;;;40.33;;
13404;SDS011;6773;51.192;7.024;2022-08-19T06:52:00;47.58;;;40.08;;
13404;SDS011;6773;51.192;7.024;2022-08-19T06:54:27;50.92;;;41.35;;
13404;SDS011;6773;51.192;7.024;2022-08-19T06:56:54;52.15;;;42.63;;
13404;SDS011;6773;51.192;7.024;2022-08-19T06:59:21;51.35;;;42.00;;
13404;SDS011;6773;51.192;7.024;2022-08-19T07:01:52;51.55;;;42.55;;
13404;SDS011;6773;51.192;7.024;2022-08-19T07:04:23;51.88;;;40.83;;
13404;SDS011;6773;51.192;7.024;2022-08-19T07:06:56;51.58;;;43.85;;
13404;SDS011;6773;51.192;7.024;2022-08-19T07:09:32;53.35;;;44.63;;
13404;SDS011;6773;51.192;7.024;2022-08-19T07:11:58;51.00;;;42.45;;
13404;SDS011;6773;51.192;7.024;2022-08-19T07:14:25;50.28;;;41.10;;
13404;SDS011;6773;51.192;7.024;2022-08-19T07:16:52;49.45;;;42.53;;
13404;SDS011;6773;51.192;7.024;2022-08-19T07:19:20;49.65;;;42.60;;
13404;SDS011;6773;51.192;7.024;2022-08-19T07:21:50;50.10;;;42.20;;
13404;SDS011;6773;51.192;7.024;2022-08-19T07:24:22;49.03;;;41.13;;
13404;SDS011;6773;51.192;7.024;2022-08-19T07:26:49;53.55;;;42.60;;
13404;SDS011;6773;51.192;7.024;2022-08-19T07:29:16;53.28;;;43.00;;
13404;SDS011;6773;51.192;7.024;2022-08-19T07:31:43;54.28;;;45.80;;
13404;SDS011;6773;51.192;7.024;2022-08-19T07:34:10;59.75;;;46.67;;
13404;SDS011;6773;51.192;7.024;2022-08-19T07:36:39;55.50;;;45.75;;
13404;SDS011;6773;51.192;7.024;2022-08-19T07:39:07;61.10;;;46.28;;
13404;SDS011;6773;51.192;7.024;2022-08-19T07:41:38;56.63;;;48.30;;
13404;SDS011;6773;51.192;7.024;2022-08-19T07:44:05;61.45;;;47.55;;
13404;SDS011;6773;51.192;7.024;2022-08-19T07:46:32;65.18;;;48.97;;
13404;SDS011;6773;51.192;7.024;2022-08-19T07:49:00;57.85;;;46.38;;
13404;SDS011;6773;51.192;7.024;2022-08-19T07:51:27;58.42;;;46.90;;
13404;SDS011;6773;51.192;7.024;2022-08-19T07:53:53;53.55;;;45.38;;
13404;SDS011;6773;51.192;7.024;2022-08-19T07:56:20;55.40;;;46.00;;
13404;SDS011;6773;51.192;7.024;2022-08-19T07:58:48;56.10;;;44.55;;
13404;SDS011;6773;51.192;7.024;2022-08-19T08:01:16;53.90;;;44.15;;
13404;SDS011;6773;51.192;7.024;2022-08-19T08:03:44;59.40;;;44.80;;
13404;SDS011;6773;51.192;7.024;2022-08-19T08:06:30;55.70;;;44.65;;
13404;SDS011;6773;51.192;7.024;2022-08-19T08:09:16;59.67;;;48.20;;
13404;SDS011;6773;51.192;7.024;2022-08-19T08:11:49;54.05;;;45.67;;
13404;SDS011;6773;51.192;7.024;2022-08-19T08:14:22;56.20;;;45.08;;
13404;SDS011;6773;51.192;7.024;2022-08-19T08:16:50;56.67;;;45.75;;
13404;SDS011;6773;51.192;7.024;2022-08-19T08:19:18;53.10;;;45.40;;
13404;SDS011;6773;51.192;7.024;2022-08-19T08:21:45;56.17;;;45.28;;
13404;SDS011;6773;51.192;7.024;2022-08-19T08:24:12;52.08;;;43.03;;
13404;SDS011;6773;51.192;7.024;2022-08-19T08:26:38;53.28;;;43.38;;
13404;SDS011;6773;51.192;7.024;2022-08-19T08:29:04;50.67;;;43.13;;
13404;SDS011;6773;51.192;7.024;2022-08-19T08:31:32;51.67;;;42.78;;
13404;SDS011;6773;51.192;7.024;2022-08-19T08:33:59;51.25;;;41.95;;
13404;SDS011;6773;51.192;7.024;2022-08-19T08:36:25;48.17;;;38.50;;
13404;SDS011;6773;51.192;7.024;2022-08-19T08:38:51;42.38;;;36.20;;
13404;SDS011;6773;51.192;7.024;2022-08-19T08:41:32;44.67;;;38.08;;
13404;SDS011;6773;51.192;7.024;2022-08-19T08:44:00;46.55;;;36.42;;
13404;SDS011;6773;51.192;7.024;2022-08-19T08:46:33;42.95;;;35.67;;
13404;SDS011;6773;51.192;7.024;2022-08-19T08:51:51;42.53;;;35.53;;
13404;SDS011;6773;51.192;7.024;2022-08-19T08:54:24;36.38;;;32.35;;
13404;SDS011;6773;51.192;7.024;2022-08-19T08:56:59;34.72;;;31.02;;
13404;SDS011;6773;51.192;7.024;2022-08-19T08:59:30;32.38;;;28.38;;
13404;SDS011;6773;51.192;7.024;2022-08-19T09:01:59;31.77;;;26.30;;
13404;SDS011;6773;51.192;7.024;2022-08-19T09:04:25;32.25;;;26.52;;
13404;SDS011;6773;51.192;7.024;2022-08-19T09:06:54;28.67;;;24.92;;
13404;SDS011;6773;51.192;7.024;2022-08-19T09:09:34;26.73;;;23.05;;
13404;SDS011;6773;51.192;7.024;2022-08-19T09:12:16;29.58;;;26.02;;
13404;SDS011;6773;51.192;7.024;2022-08-19T09:15:07;30.02;;;24.95;;
13404;SDS011;6773;51.192;7.024;2022-08-19T09:17:37;28.08;;;25.08;;
13404;SDS011;6773;51.192;7.024;2022-08-19T09:22:40;25.85;;;23.23;;
13404;SDS011;6773;51.192;7.024;2022-08-19T09:25:11;24.77;;;21.80;;
13404;SDS011;6773;51.192;7.024;2022-08-19T09:27:39;26.33;;;23.50;;
13404;SDS011;6773;51.192;7.024;2022-08-19T09:30:07;26.85;;;23.92;;
13404;SDS011;6773;51.192;7.024;2022-08-19T09:32:34;23.75;;;21.35;;
13404;SDS011;6773;51.192;7.024;2022-08-19T09:35:00;25.23;;;21.95;;
13404;SDS011;6773;51.192;7.024;2022-08-19T09:37:26;23.23;;;20.48;;
13404;SDS011;6773;51.192;7.024;2022-08-19T09:39:52;29.52;;;23.67;;
13404;SDS011;6773;51.192;7.024;2022-08-19T09:42:18;25.48;;;22.77;;
13404;SDS011;6773;51.192;7.024;2022-08-19T09:44:45;24.73;;;21.75;;
13404;SDS011;6773;51.192;7.024;2022-08-19T09:47:12;25.50;;;22.67;;
13404;SDS011;6773;51.192;7.024;2022-08-19T09:49:39;28.88;;;24.73;;
13404;SDS011;6773;51.192;7.024;2022-08-19T09:52:05;32.58;;;26.90;;
13404;SDS011;6773;51.192;7.024;2022-08-19T09:54:36;33.00;;;28.33;;
13404;SDS011;6773;51.192;7.024;2022-08-19T09:57:03;36.72;;;28.02;;
13404;SDS011;6773;51.192;7.024;2022-08-19T09:59:28;37.35;;;28.92;;
13404;SDS011;6773;51.192;7.024;2022-08-19T10:01:54;33.58;;;27.20;;
13404;SDS011;6773;51.192;7.024;2022-08-19T10:04:20;32.53;;;27.08;;
13404;SDS011;6773;51.192;7.024;2022-08-19T10:06:47;28.75;;;25.05;;
13404;SDS011;6773;51.192;7.024;2022-08-19T10:09:15;24.42;;;21.50;;
13404;SDS011;6773;51.192;7.024;2022-08-19T10:11:44;24.80;;;22.15;;
13404;SDS011;6773;51.192;7.024;2022-08-19T10:14:14;25.10;;;22.30;;
13404;SDS011;6773;51.192;7.024;2022-08-19T10:16:42;24.63;;;21.90;;
13404;SDS011;6773;51.192;7.024;2022-08-19T10:19:08;24.60;;;21.98;;
13404;SDS011;6773;51.192;7.024;2022-08-19T10:21:34;25.90;;;22.73;;
13404;SDS011;6773;51.192;7.024;2022-08-19T10:24:02;24.52;;;21.27;;
13404;SDS011;6773;51.192;7.024;2022-08-19T10:26:31;24.27;;;21.67;;
13404;SDS011;6773;51.192;7.024;2022-08-19T10:29:02;23.02;;;19.70;;
13404;SDS011;6773;51.192;7.024;2022-08-19T10:31:30;23.88;;;21.13;;
13404;SDS011;6773;51.192;7.024;2022-08-19T10:33:58;24.38;;;20.13;;
13404;SDS011;6773;51.192;7.024;2022-08-19T10:36:28;25.20;;;20.27;;
13404;SDS011;6773;51.192;7.024;2022-08-19T10:38:58;21.23;;;18.85;;
13404;SDS011;6773;51.192;7.024;2022-08-19T10:41:27;19.65;;;17.70;;
13404;SDS011;6773;51.192;7.024;2022-08-19T10:43:56;20.38;;;18.20;;
13404;SDS011;6773;51.192;7.024;2022-08-19T10:46:24;21.42;;;18.70;;
13404;SDS011;6773;51.192;7.024;2022-08-19T10:48:51;18.38;;;16.13;;
13404;SDS011;6773;51.192;7.024;2022-08-19T10:51:17;20.48;;;16.95;;
13404;SDS011;6773;51.192;7.024;2022-08-19T10:54:02;17.02;;;15.25;;
13404;SDS011;6773;51.192;7.024;2022-08-19T10:56:29;22.65;;;16.95;;
13404;SDS011;6773;51.192;7.024;2022-08-19T10:59:14;19.88;;;17.13;;
13404;SDS011;6773;51.192;7.024;2022-08-19T11:01:41;22.27;;;19.83;;
13404;SDS011;6773;51.192;7.024;2022-08-19T11:04:08;19.50;;;16.48;;
13404;SDS011;6773;51.192;7.024;2022-08-19T11:06:36;16.00;;;14.23;;
13404;SDS011;6773;51.192;7.024;2022-08-19T11:09:03;19.45;;;15.25;;
13404;SDS011;6773;51.192;7.024;2022-08-19T11:11:30;17.63;;;15.65;;
13404;SDS011;6773;51.192;7.024;2022-08-19T11:13:57;16.40;;;14.80;;
13404;SDS011;6773;51.192;7.024;2022-08-19T11:16:24;15.40;;;13.90;;
13404;SDS011;6773;51.192;7.024;2022-08-19T11:18:56;17.92;;;15.70;;
13404;SDS011;6773;51.192;7.024;2022-08-19T11:21:27;16.27;;;14.77;;
13404;SDS011;6773;51.192;7.024;2022-08-19T11:23:58;17.58;;;15.88;;
13404;SDS011;6773;51.192;7.024;2022-08-19T11:26:26;18.02;;;14.88;;
13404;SDS011;6773;51.192;7.024;2022-08-19T11:28:52;17.30;;;15.60;;
13404;SDS011;6773;51.192;7.024;2022-08-19T11:31:21;16.60;;;14.90;;
13404;SDS011;6773;51.192;7.024;2022-08-19T11:33:48;17.48;;;15.73;;
13404;SDS011;6773;51.192;7.024;2022-08-19T11:36:20;17.70;;;14.73;;
13404;SDS011;6773;51.192;7.024;2022-08-19T11:38:47;17.10;;;15.43;;
13404;SDS011;6773;51.192;7.024;2022-08-19T11:41:14;15.23;;;13.82;;
13404;SDS011;6773;51.192;7.024;2022-08-19T11:43:41;15.10;;;12.90;;
13404;SDS011;6773;51.192;7.024;2022-08-19T11:46:08;14.23;;;11.70;;
13404;SDS011;6773;51.192;7.024;2022-08-19T11:48:35;11.38;;;10.18;;
13404;SDS011;6773;51.192;7.024;2022-08-19T11:51:06;11.40;;;10.30;;
13404;SDS011;6773;51.192;7.024;2022-08-19T11:53:33;12.52;;;10.63;;
13404;SDS011;6773;51.192;7.024;2022-08-19T11:56:00;12.85;;;10.20;;
13404;SDS011;6773;51.192;7.024;2022-08-19T11:58:25;12.93;;;9.95;;
13404;SDS011;6773;51.192;7.024;2022-08-19T12:00:51;11.70;;;9.55;;
13404;SDS011;6773;51.192;7.024;2022-08-19T12:03:18;11.82;;;10.32;;
13404;SDS011;6773;51.192;7.024;2022-08-19T12:05:44;11.02;;;9.45;;
13404;SDS011;6773;51.192;7.024;2022-08-19T12:08:10;11.27;;;9.43;;
13404;SDS011;6773;51.192;7.024;2022-08-19T12:10:38;17.30;;;11.05;;
13404;SDS011;6773;51.192;7.024;2022-08-19T12:13:05;10.63;;;9.52;;
13404;SDS011;6773;51.192;7.024;2022-08-19T12:15:35;11.60;;;10.50;;
13404;SDS011;6773;51.192;7.024;2022-08-19T12:18:01;10.90;;;9.65;;
13404;SDS011;6773;51.192;7.024;2022-08-19T12:20:27;9.65;;;8.43;;
13404;SDS011;6773;51.192;7.024;2022-08-19T12:22:53;9.00;;;7.90;;
13404;SDS011;6773;51.192;7.024;2022-08-19T12:25:19;10.00;;;7.15;;
13404;SDS011;6773;51.192;7.024;2022-08-19T12:27:45;10.23;;;9.32;;
13404;SDS011;6773;51.192;7.024;2022-08-19T12:30:12;10.45;;;8.63;;
13404;SDS011;6773;51.192;7.024;2022-08-19T12:32:38;9.65;;;8.45;;
13404;SDS011;6773;51.192;7.024;2022-08-19T12:35:05;8.45;;;7.55;;
13404;SDS011;6773;51.192;7.024;2022-08-19T12:37:31;10.38;;;8.98;;
13404;SDS011;6773;51.192;7.024;2022-08-19T12:39:57;8.68;;;7.63;;
13404;SDS011;6773;51.192;7.024;2022-08-19T12:42:23;9.90;;;8.90;;
13404;SDS011;6773;51.192;7.024;2022-08-19T12:44:49;8.38;;;7.40;;
13404;SDS011;6773;51.192;7.024;2022-08-19T12:47:16;7.95;;;7.07;;
13404;SDS011;6773;51.192;7.024;2022-08-19T12:49:42;8.55;;;7.75;;
13404;SDS011;6773;51.192;7.024;2022-08-19T12:52:09;7.32;;;6.47;;
13404;SDS011;6773;51.192;7.024;2022-08-19T12:54:36;8.98;;;7.40;;
13404;SDS011;6773;51.192;7.024;2022-08-19T12:57:05;9.48;;;8.55;;
13404;SDS011;6773;51.192;7.024;2022-08-19T12:59:33;6.93;;;6.20;;
13404;SDS011;6773;51.192;7.024;2022-08-19T13:01:59;8.77;;;7.22;;
13404;SDS011;6773;51.192;7.024;2022-08-19T13:04:25;8.32;;;7.53;;
13404;SDS011;6773;51.192;7.024;2022-08-19T13:06:51;7.60;;;7.00;;
13404;SDS011;6773;51.192;7.024;2022-08-19T13:09:17;8.15;;;6.57;;
13404;SDS011;6773;51.192;7.024;2022-08-19T13:11:42;10.05;;;8.25;;
13404;SDS011;6773;51.192;7.024;2022-08-19T13:14:08;8.77;;;7.55;;
13404;SDS011;6773;51.192;7.024;2022-08-19T13:16:35;7.95;;;7.15;;
13404;SDS011;6773;51.192;7.024;2022-08-19T13:19:01;7.15;;;6.50;;
13404;SDS011;6773;51.192;7.024;2022-08-19T13:21:29;7.97;;;6.25;;
13404;SDS011;6773;51.192;7.024;2022-08-19T13:23:56;7.03;;;6.32;;
13404;SDS011;6773;51.192;7.024;2022-08-19T13:26:22;9.20;;;6.00;;
13404;SDS011;6773;51.192;7.024;2022-08-19T13:28:48;6.82;;;6.15;;
13404;SDS011;6773;51.192;7.024;2022-08-19T13:31:33;5.78;;;5.25;;
13404;SDS011;6773;51.192;7.024;2022-08-19T13:34:19;6.57;;;5.88;;
13404;SDS011;6773;51.192;7.024;2022-08-19T13:36:59;8.82;;;6.55;;
13404;SDS011;6773;51.192;7.024;2022-08-19T13:39:27;6.57;;;5.97;;
13404;SDS011;6773;51.192;7.024;2022-08-19T13:41:54;6.60;;;5.80;;
13404;SDS011;6773;51.192;7.024;2022-08-19T13:44:20;9.60;;;7.18;;
13404;SDS011;6773;51.192;7.024;2022-08-19T13:46:47;11.93;;;7.90;;
13404;SDS011;6773;51.192;7.024;2022-08-19T13:49:14;8.77;;;7.32;;
13404;SDS011;6773;51.192;7.024;2022-08-19T13:51:40;7.45;;;6.75;;
13404;SDS011;6773;51.192;7.024;2022-08-19T13:54:08;8.65;;;7.72;;
13404;SDS011;6773;51.192;7.024;2022-08-19T13:56:34;7.78;;;6.97;;
13404;SDS011;6773;51.192;7.024;2022-08-19T13:59:04;6.85;;;6.15;;
13404;SDS011;6773;51.192;7.024;2022-08-19T14:01:30;6.28;;;5.68;;
13404;SDS011;6773;51.192;7.024;2022-08-19T14:03:56;6.82;;;5.20;;
13404;SDS011;6773;51.192;7.024;2022-08-19T14:06:21;9.00;;;7.03;;
13404;SDS011;6773;51.192;7.024;2022-08-19T14:08:47;6.15;;;5.45;;
13404;SDS011;6773;51.192;7.024;2022-08-19T14:11:13;6.05;;;5.43;;
13404;SDS011;6773;51.192;7.024;2022-08-19T14:13:39;7.13;;;5.97;;
13404;SDS011;6773;51.192;7.024;2022-08-19T14:16:09;8.13;;;6.20;;
13404;SDS011;6773;51.192;7.024;2022-08-19T14:18:35;9.32;;;5.75;;
13404;SDS011;6773;51.192;7.024;2022-08-19T14:21:02;5.85;;;5.03;;
13404;SDS011;6773;51.192;7.024;2022-08-19T14:23:29;6.50;;;5.20;;
13404;SDS011;6773;51.192;7.024;2022-08-19T14:26:03;8.18;;;5.18;;
13404;SDS011;6773;51.192;7.024;2022-08-19T14:28:30;6.80;;;6.20;;
13404;SDS011;6773;51.192;7.024;2022-08-19T14:30:55;5.63;;;5.03;;
13404;SDS011;6773;51.192;7.024;2022-08-19T14:33:21;5.00;;;4.50;;
13404;SDS011;6773;51.192;7.024;2022-08-19T14:35:47;5.50;;;4.93;;
13404;SDS011;6773;51.192;7.024;2022-08-19T14:38:16;5.55;;;5.05;;
13404;SDS011;6773;51.192;7.024;2022-08-19T14:40:43;6.38;;;4.70;;
13404;SDS011;6773;51.192;7.024;2022-08-19T14:43:09;6.68;;;4.57;;
13404;SDS011;6773;51.192;7.024;2022-08-19T14:45:36;5.22;;;4.30;;
13404;SDS011;6773;51.192;7.024;2022-08-19T14:48:03;5.40;;;4.72;;
13404;SDS011;6773;51.192;7.024;2022-08-19T14:50:30;5.82;;;4.20;;
13404;SDS011;6773;51.192;7.024;2022-08-19T14:52:58;6.97;;;4.32;;